Time;durP1;ratioP1;P1;durP2;ratioP2;P2;SDS_P1;SDS_P2;PMS_P1;PMS_P2;Temp;Humidity;BMP_temperature;BMP_pressure;BME280_temperature;BME280_humidity;BME280_pressure;Samples;Min_cycle;Max_cycle;Signal;HPM_P1;HPM_P2
2022/05/15 00:00:37;;;;;;;4.00;3.70;;;15.90;62.60;16.20;96728.00;;;;5037538;28;20201;-81
2022/05/15 00:00:38;;;;;;;4.57;3.80;;;15.90;62.80;16.10;96725.00;;;;5037021;28;20217;-82
2022/05/15 00:03:07;;;;;;;3.63;3.33;;;15.90;62.90;16.10;96720.00;;;;5031371;28;20197;-82
2022/05/15 00:05:34;;;;;;;5.50;5.10;;;15.90;62.80;16.10;96722.00;;;;5036317;28;20202;-82
2022/05/15 00:08:02;;;;;;;6.23;5.53;;;15.80;62.90;16.10;96721.00;;;;5037452;28;20196;-82
2022/05/15 00:10:30;;;;;;;4.73;4.17;;;15.80;63.20;16.10;96719.00;;;;5035448;28;20229;-82
2022/05/15 00:12:57;;;;;;;5.07;4.67;;;15.80;63.30;16.10;96720.00;;;;5036869;28;20244;-82
2022/05/15 00:15:25;;;;;;;5.17;4.77;;;15.80;63.20;16.00;96725.00;;;;5039351;28;20208;-81
2022/05/15 00:17:52;;;;;;;5.03;4.63;;;15.70;63.00;16.00;96732.00;;;;5034960;28;20197;-82
2022/05/15 00:20:20;;;;;;;4.93;4.53;;;15.70;63.30;16.00;96721.00;;;;5035475;28;20225;-81
2022/05/15 00:22:47;;;;;;;4.90;4.50;;;15.70;63.50;15.90;96715.00;;;;5035498;28;20197;-81
2022/05/15 00:25:14;;;;;;;5.20;4.70;;;15.60;63.30;15.90;96720.00;;;;5035834;28;20242;-82
2022/05/15 00:27:41;;;;;;;5.00;4.60;;;15.60;63.30;15.90;96718.00;;;;5033360;28;20285;-82
2022/05/15 00:30:10;;;;;;;5.83;4.93;;;15.60;63.50;15.80;96719.00;;;;5033453;28;20236;-82
2022/05/15 00:32:37;;;;;;;4.60;4.20;;;15.50;63.70;15.80;96719.00;;;;5038116;28;20666;-82
2022/05/15 00:35:05;;;;;;;4.53;4.13;;;15.50;63.80;15.80;96717.00;;;;5032868;28;20201;-82
2022/05/15 00:37:33;;;;;;;3.90;3.43;;;15.50;63.80;15.70;96717.00;;;;5035125;28;20765;-82
2022/05/15 00:40:00;;;;;;;4.83;4.20;;;15.50;64.00;15.70;96721.00;;;;5034689;28;20217;-82
2022/05/15 00:42:27;;;;;;;4.27;3.87;;;15.40;64.00;15.70;96712.00;;;;5034531;28;20200;-82
2022/05/15 00:44:54;;;;;;;4.80;4.30;;;15.40;64.30;15.70;96718.00;;;;5033990;28;20201;-82
2022/05/15 00:47:22;;;;;;;4.30;3.90;;;15.40;64.60;15.70;96713.00;;;;5047056;28;20680;-82
2022/05/15 00:49:50;;;;;;;4.67;4.20;;;15.30;64.60;15.70;96706.00;;;;5032526;28;20221;-82
2022/05/15 00:52:24;;;;;;;4.83;4.33;;;15.30;64.90;15.70;96713.00;;;;5034329;28;20197;-83
2022/05/15 00:55:00;;;;;;;4.60;4.20;;;15.30;65.20;15.60;96703.00;;;;5026907;28;20193;-82
2022/05/15 00:57:34;;;;;;;5.67;4.03;;;15.30;65.40;15.60;96701.00;;;;5035004;28;20259;-82
2022/05/15 01:00:10;;;;;;;5.97;4.37;;;15.30;65.30;15.50;96708.00;;;;5032923;28;20221;-81
2022/05/15 01:02:42;;;;;;;4.10;3.80;;;15.30;65.50;15.50;96700.00;;;;5030617;28;20283;-82
2022/05/15 01:05:12;;;;;;;3.90;3.60;;;15.30;65.50;15.50;96700.00;;;;5034305;28;20678;-82
2022/05/15 01:07:39;;;;;;;4.57;3.20;;;15.20;65.50;15.40;96699.00;;;;5034356;28;20674;-82
2022/05/15 01:10:11;;;;;;;3.53;3.27;;;15.20;65.50;15.40;96699.00;;;;5032365;28;20232;-82
2022/05/15 01:12:41;;;;;;;3.80;3.50;;;15.20;65.50;15.40;96696.00;;;;5032055;28;20212;-82
2022/05/15 01:15:11;;;;;;;4.43;3.70;;;15.10;65.10;15.30;96696.00;;;;5033625;28;20201;-82
2022/05/15 01:17:38;;;;;;;4.10;3.70;;;15.10;65.10;15.30;96695.00;;;;5029584;28;20199;-82
2022/05/15 01:20:09;;;;;;;4.37;3.57;;;15.10;65.20;15.30;96694.00;;;;5026945;28;20237;-82
2022/05/15 01:22:38;;;;;;;3.33;3.03;;;15.10;65.20;15.30;96694.00;;;;5034156;28;20209;-82
2022/05/15 01:25:15;;;;;;;3.10;2.90;;;15.00;65.20;15.30;96701.00;;;;5033525;28;20197;-82
2022/05/15 01:27:48;;;;;;;3.07;2.77;;;15.10;65.50;15.30;96694.00;;;;5034315;28;20204;-82
2022/05/15 01:30:15;;;;;;;3.40;3.10;;;15.00;65.50;15.30;96689.00;;;;5033227;28;20225;-83
2022/05/15 01:32:42;;;;;;;3.40;3.10;;;15.00;65.40;15.20;96694.00;;;;5038766;28;20189;-82
2022/05/15 01:35:10;;;;;;;3.97;3.07;;;15.00;65.30;15.20;96701.00;;;;5040986;28;20288;-82
2022/05/15 01:37:39;;;;;;;4.27;2.90;;;15.00;65.40;15.20;96696.00;;;;5041394;28;20198;-81
2022/05/15 01:40:09;;;;;;;3.40;3.10;;;14.90;65.30;15.20;96695.00;;;;5046211;28;20249;-81
2022/05/15 01:42:37;;;;;;;2.90;2.70;;;14.90;65.30;15.20;96700.00;;;;5042520;28;20201;-80
2022/05/15 01:45:05;;;;;;;2.57;2.37;;;14.90;65.50;15.10;96689.00;;;;5038542;28;20201;-82
2022/05/15 01:47:33;;;;;;;3.00;2.50;;;14.80;65.70;15.00;96697.00;;;;5041823;28;20207;-82
2022/05/15 01:50:00;;;;;;;2.67;2.40;;;14.80;65.90;14.90;96697.00;;;;5047093;28;20220;-82
2022/05/15 01:52:28;;;;;;;3.23;2.37;;;14.80;66.10;14.90;96683.00;;;;5046807;28;20202;-82
2022/05/15 01:54:57;;;;;;;2.70;2.50;;;14.70;67.00;14.90;96683.00;;;;5042113;28;20216;-83
2022/05/15 01:57:24;;;;;;;3.10;2.80;;;14.70;66.50;14.80;96691.00;;;;5041452;28;20280;-83
2022/05/15 01:59:51;;;;;;;2.57;2.37;;;14.70;66.50;14.80;96690.00;;;;5039959;28;20213;-83
2022/05/15 02:02:18;;;;;;;2.23;2.03;;;14.60;66.40;14.80;96675.00;;;;5045833;28;20193;-83
2022/05/15 02:04:46;;;;;;;2.90;2.47;;;14.60;66.40;14.80;96681.00;;;;5038941;28;20200;-83
2022/05/15 02:07:13;;;;;;;2.63;2.43;;;14.60;66.40;14.80;96680.00;;;;5039152;28;20284;-83
2022/05/15 02:09:40;;;;;;;2.70;2.20;;;14.60;66.30;14.80;96682.00;;;;5040239;28;20246;-84
2022/05/15 02:12:10;;;;;;;2.50;2.30;;;14.60;66.20;14.80;96682.00;;;;5034630;28;20228;-83
2022/05/15 02:14:37;;;;;;;2.30;1.97;;;14.60;66.20;14.80;96681.00;;;;5041301;28;20227;-83
2022/05/15 02:17:05;;;;;;;2.17;2.03;;;14.50;66.00;14.80;96682.00;;;;5039787;28;20227;-83
2022/05/15 02:19:32;;;;;;;2.40;2.23;;;14.50;66.10;14.80;96680.00;;;;5040379;28;20240;-83
2022/05/15 02:21:59;;;;;;;3.10;2.00;;;14.50;66.10;14.70;96675.00;;;;5044885;28;20216;-83
2022/05/15 02:24:26;;;;;;;2.60;2.40;;;14.50;66.10;14.70;96684.00;;;;5040797;28;20250;-83
2022/05/15 02:26:53;;;;;;;2.43;2.20;;;14.40;66.20;14.70;96674.00;;;;5038773;28;20682;-83
2022/05/15 02:29:22;;;;;;;2.57;1.87;;;14.40;66.40;14.70;96680.00;;;;5039094;28;20312;-83
2022/05/15 02:31:49;;;;;;;2.23;2.03;;;14.40;66.60;14.60;96679.00;;;;5038713;28;20232;-83
2022/05/15 02:34:16;;;;;;;2.03;1.87;;;14.40;66.60;14.60;96671.00;;;;5029272;28;20213;-83
2022/05/15 02:36:43;;;;;;;2.20;2.00;;;14.30;66.60;14.60;96675.00;;;;5038322;28;20396;-83
2022/05/15 02:39:10;;;;;;;1.77;1.67;;;14.30;66.70;14.50;96679.00;;;;5036964;28;20197;-83
2022/05/15 02:41:37;;;;;;;2.00;1.90;;;14.30;66.70;14.50;96673.00;;;;5037750;28;20213;-83
2022/05/15 02:44:05;;;;;;;2.70;2.03;;;14.30;66.80;14.50;96680.00;;;;5038516;28;20273;-83
2022/05/15 02:46:34;;;;;;;2.93;1.97;;;14.30;67.00;14.50;96685.00;;;;5037987;28;20198;-83
2022/05/15 02:51:45;;;;;;;2.50;2.03;;;14.20;67.00;14.50;96679.00;;;;5033178;28;20229;-82
2022/05/15 02:54:12;;;;;;;2.50;2.30;;;14.20;67.00;14.50;96682.00;;;;5036146;28;20660;-82
2022/05/15 02:56:40;;;;;;;2.20;1.90;;;14.20;67.10;14.50;96678.00;;;;5027169;28;20189;-82
2022/05/15 02:59:08;;;;;;;1.90;1.80;;;14.20;67.00;14.50;96681.00;;;;5037127;28;20199;-83
2022/05/15 03:01:37;;;;;;;2.33;2.13;;;14.20;67.00;14.40;96688.00;;;;5036666;28;20217;-83
2022/05/15 03:04:05;;;;;;;2.67;2.07;;;14.10;66.90;14.40;96681.00;;;;5035909;28;20193;-83
2022/05/15 03:06:33;;;;;;;2.50;2.23;;;14.10;66.90;14.40;96685.00;;;;5034197;28;20215;-83
2022/05/15 03:09:00;;;;;;;2.37;2.03;;;14.10;67.00;14.40;96681.00;;;;5033703;28;20225;-83
2022/05/15 03:11:27;;;;;;;2.53;2.10;;;14.10;67.20;14.30;96693.00;;;;5035197;28;20225;-83
2022/05/15 03:13:55;;;;;;;2.60;1.90;;;14.00;67.30;14.30;96688.00;;;;5035630;28;20207;-83
2022/05/15 03:16:22;;;;;;;2.50;2.00;;;14.00;67.40;14.30;96681.00;;;;5034459;28;20281;-83
2022/05/15 03:18:52;;;;;;;1.53;1.43;;;14.00;67.40;14.30;96687.00;;;;5036269;28;20194;-83
2022/05/15 03:21:29;;;;;;;2.33;2.13;;;14.00;67.70;14.20;96680.00;;;;5034939;28;20225;-83
2022/05/15 03:23:57;;;;;;;2.23;2.03;;;14.00;67.60;14.20;96685.00;;;;5033870;28;20201;-83
2022/05/15 03:26:26;;;;;;;2.13;1.93;;;14.00;67.90;14.20;96676.00;;;;5035739;28;20201;-83
2022/05/15 03:28:54;;;;;;;1.80;1.60;;;14.00;67.90;14.20;96685.00;;;;5035203;28;20667;-83
2022/05/15 03:31:21;;;;;;;2.10;2.00;;;13.90;67.80;14.20;96681.00;;;;5042600;28;20594;-83
2022/05/15 03:33:48;;;;;;;3.23;2.10;;;13.90;67.70;14.20;96682.00;;;;5039266;28;20201;-83
2022/05/15 03:36:17;;;;;;;1.83;1.70;;;13.90;67.80;14.20;96679.00;;;;5038723;28;20724;-83
2022/05/15 03:38:47;;;;;;;3.30;1.97;;;13.90;68.00;14.20;96682.00;;;;5031931;28;20205;-83
2022/05/15 03:41:14;;;;;;;2.00;1.80;;;13.90;67.90;14.10;96684.00;;;;5038397;28;20221;-82
2022/05/15 03:43:41;;;;;;;1.80;1.70;;;13.90;67.90;14.10;96681.00;;;;5038697;28;20190;-83
2022/05/15 03:46:09;;;;;;;1.80;1.70;;;13.80;68.00;14.10;96687.00;;;;5043946;28;20212;-83
2022/05/15 03:48:36;;;;;;;2.13;1.73;;;13.80;68.30;14.20;96683.00;;;;5037154;28;20281;-85
2022/05/15 03:51:04;;;;;;;2.40;1.90;;;13.90;68.40;14.10;96682.00;;;;5036495;28;20247;-85
2022/05/15 03:53:33;;;;;;;1.90;1.80;;;13.90;68.30;14.20;96681.00;;;;5036564;28;20651;-85
2022/05/15 03:56:01;;;;;;;3.70;1.60;;;13.90;69.20;14.20;96672.00;;;;5036495;28;20196;-85
2022/05/15 03:58:33;;;;;;;2.70;1.90;;;13.90;68.70;14.20;96674.00;;;;5036382;28;20258;-85
2022/05/15 04:01:01;;;;;;;2.10;1.97;;;13.90;68.80;14.20;96673.00;;;;5036685;28;20586;-85
2022/05/15 04:03:28;;;;;;;1.90;1.77;;;13.80;68.50;14.20;96681.00;;;;5031065;28;20562;-85
2022/05/15 04:05:55;;;;;;;1.70;1.60;;;13.90;68.60;14.30;96680.00;;;;5046611;28;20196;-85
2022/05/15 04:08:22;;;;;;;4.73;1.87;;;13.90;68.50;14.30;96677.00;;;;5057072;28;20197;-85
2022/05/15 04:10:50;;;;;;;3.33;1.60;;;13.90;68.50;14.30;96670.00;;;;5057201;28;20227;-85
2022/05/15 04:13:18;;;;;;;2.33;1.87;;;13.90;68.70;14.30;96674.00;;;;5043972;28;20197;-85
2022/05/15 04:15:45;;;;;;;1.90;1.80;;;13.90;68.60;14.30;96679.00;;;;5035477;28;20201;-85
2022/05/15 04:18:12;;;;;;;2.00;1.80;;;13.90;68.50;14.30;96675.00;;;;5035964;28;20198;-86
2022/05/15 04:20:41;;;;;;;1.87;1.67;;;13.90;68.50;14.30;96671.00;;;;5043203;22;20227;-85
2022/05/15 04:23:16;;;;;;;1.80;1.70;;;13.90;68.50;14.30;96676.00;;;;5031206;28;20212;-85
2022/05/15 04:25:50;;;;;;;2.07;1.73;;;13.90;68.70;14.30;96686.00;;;;5036328;28;20254;-85
2022/05/15 04:28:28;;;;;;;2.40;1.73;;;13.90;68.60;14.30;96684.00;;;;5020354;28;20304;-84
2022/05/15 04:31:00;;;;;;;1.93;1.60;;;13.90;68.90;14.30;96684.00;;;;5014090;28;20222;-85
2022/05/15 04:33:35;;;;;;;2.27;1.50;;;13.90;68.90;14.40;96685.00;;;;5016456;28;20209;-84
2022/05/15 04:36:11;;;;;;;1.73;1.57;;;13.90;69.20;14.40;96683.00;;;;5018478;28;20297;-85
2022/05/15 04:38:40;;;;;;;1.77;1.63;;;13.90;69.50;14.40;96692.00;;;;5019768;28;20213;-84
2022/05/15 04:41:07;;;;;;;1.80;1.70;;;13.90;69.50;14.40;96696.00;;;;5018531;28;20216;-85
2022/05/15 04:43:37;;;;;;;1.90;1.50;;;13.90;69.70;14.40;96701.00;;;;5017301;28;20711;-84
2022/05/15 04:46:07;;;;;;;2.17;1.43;;;14.00;69.70;14.50;96701.00;;;;5018227;28;20270;-84
2022/05/15 04:48:40;;;;;;;1.83;1.53;;;13.90;69.60;14.50;96699.00;;;;5018188;28;20225;-84
2022/05/15 04:51:09;;;;;;;2.07;1.70;;;14.00;69.70;14.50;96701.00;;;;5014176;28;20292;-85
2022/05/15 04:53:43;;;;;;;1.60;1.50;;;14.00;69.70;14.50;96701.00;;;;5015379;28;20289;-85
2022/05/15 04:56:11;;;;;;;1.70;1.60;;;14.00;69.70;14.50;96710.00;;;;5014911;28;20205;-85
2022/05/15 04:58:40;;;;;;;2.77;1.60;;;14.10;69.80;14.60;96703.00;;;;5016449;28;20277;-85
2022/05/15 05:01:10;;;;;;;1.80;1.70;;;14.10;69.90;14.60;96705.00;;;;5015165;28;20208;-85
2022/05/15 05:03:39;;;;;;;1.70;1.60;;;14.10;69.90;14.60;96707.00;;;;5015998;28;20201;-85
2022/05/15 05:06:07;;;;;;;1.57;1.47;;;14.20;70.00;14.60;96706.00;;;;5016321;28;20206;-85
2022/05/15 05:08:38;;;;;;;1.77;1.60;;;14.10;70.00;14.70;96708.00;;;;5017085;28;20262;-85
2022/05/15 05:11:13;;;;;;;2.47;2.07;;;14.20;70.90;14.70;96703.00;;;;5017447;28;20832;-85
2022/05/15 05:13:49;;;;;;;2.03;1.63;;;14.20;70.60;14.70;96709.00;;;;5019737;28;20209;-85
2022/05/15 05:16:18;;;;;;;2.10;1.90;;;14.20;70.40;14.70;96713.00;;;;5017215;28;20611;-85
2022/05/15 05:18:45;;;;;;;1.90;1.70;;;14.30;70.40;14.80;96709.00;;;;5018215;28;20617;-85
2022/05/15 05:21:17;;;;;;;2.47;1.80;;;14.30;70.50;14.80;96712.00;;;;5017887;28;20233;-85
2022/05/15 05:23:47;;;;;;;2.40;2.20;;;14.30;70.60;14.90;96712.00;;;;5017565;28;20204;-85
2022/05/15 05:26:17;;;;;;;2.00;1.90;;;14.40;70.90;14.90;96715.00;;;;5015765;28;20289;-86
2022/05/15 05:28:47;;;;;;;2.30;2.17;;;14.40;71.10;14.90;96713.00;;;;5016609;28;20248;-85
2022/05/15 05:31:18;;;;;;;2.47;2.00;;;14.30;71.30;15.00;96718.00;;;;5015122;28;20321;-85
2022/05/15 05:33:48;;;;;;;2.37;2.20;;;14.50;71.40;15.00;96710.00;;;;5016983;28;20229;-85
2022/05/15 05:36:18;;;;;;;2.27;2.07;;;14.50;71.50;15.10;96712.00;;;;5016875;28;20202;-84
2022/05/15 05:38:48;;;;;;;3.10;2.77;;;14.60;71.80;15.20;96713.00;;;;5017833;28;20198;-85
2022/05/15 05:41:18;;;;;;;2.90;2.40;;;14.60;71.90;15.20;96715.00;;;;5016814;28;20186;-84
2022/05/15 05:43:49;;;;;;;3.83;2.93;;;14.60;72.10;15.30;96727.00;;;;5015300;28;20213;-85
2022/05/15 05:46:21;;;;;;;2.33;2.23;;;14.80;72.10;15.30;96718.00;;;;5017294;28;20258;-85
2022/05/15 05:48:49;;;;;;;2.17;2.07;;;14.80;72.00;15.40;96720.00;;;;5017822;28;20233;-85
2022/05/15 05:51:16;;;;;;;2.70;2.50;;;14.90;72.20;15.50;96724.00;;;;5015081;28;20232;-84
2022/05/15 05:53:44;;;;;;;3.30;2.70;;;14.90;73.00;15.60;96729.00;;;;5013702;28;20206;-84
2022/05/15 05:56:11;;;;;;;4.00;3.60;;;15.00;72.50;15.70;96731.00;;;;5015406;28;20256;-85
2022/05/15 05:58:38;;;;;;;3.10;2.83;;;15.10;72.60;15.70;96735.00;;;;5016647;28;20281;-84
2022/05/15 06:01:07;;;;;;;3.03;2.80;;;15.20;72.90;15.80;96727.00;;;;5016111;28;20206;-84
2022/05/15 06:06:19;;;;;;;2.60;2.40;;;15.40;73.20;16.00;96730.00;;;;5016914;28;20565;-84
2022/05/15 06:08:47;;;;;;;3.00;2.70;;;15.50;73.10;16.10;96734.00;;;;5016696;28;20225;-85
2022/05/15 06:11:17;;;;;;;3.17;2.90;;;15.60;73.10;16.20;96731.00;;;;5014831;28;20309;-85
2022/05/15 06:13:44;;;;;;;3.17;2.67;;;15.60;73.10;16.30;96728.00;;;;5013725;28;20288;-85
2022/05/15 06:16:18;;;;;;;3.57;2.87;;;15.70;73.00;16.40;96733.00;;;;5014670;28;20190;-85
2022/05/15 06:18:48;;;;;;;2.80;2.60;;;15.80;73.10;16.50;96733.00;;;;5017016;28;20599;-84
2022/05/15 06:21:15;;;;;;;2.60;2.40;;;15.90;72.90;16.60;96741.00;;;;5016847;28;20210;-85
2022/05/15 06:23:43;;;;;;;3.00;2.80;;;16.00;73.00;16.70;96749.00;;;;5017749;28;20248;-84
2022/05/15 06:26:10;;;;;;;3.07;2.77;;;16.10;73.30;16.80;96733.00;;;;5017483;28;20277;-84
2022/05/15 06:28:49;;;;;;;2.77;2.57;;;16.20;73.40;16.90;96734.00;;;;5016937;28;20277;-85
2022/05/15 06:31:17;;;;;;;3.43;2.90;;;16.30;73.60;17.00;96739.00;;;;5013504;28;20296;-85
2022/05/15 06:33:44;;;;;;;3.57;3.10;;;16.40;73.60;17.10;96746.00;;;;5015498;28;20988;-84
2022/05/15 06:36:17;;;;;;;3.23;2.93;;;16.50;73.70;17.20;96746.00;;;;5015127;28;20622;-84
2022/05/15 06:38:47;;;;;;;3.10;2.80;;;16.60;73.90;17.30;96758.00;;;;5015985;28;20236;-85
2022/05/15 06:41:18;;;;;;;3.33;3.10;;;16.70;73.90;17.40;96763.00;;;;5015590;28;20236;-85
2022/05/15 06:43:48;;;;;;;2.67;2.47;;;16.80;73.80;17.50;96754.00;;;;5007846;28;20199;-86
2022/05/15 06:46:16;;;;;;;3.17;2.87;;;16.90;73.50;17.60;96755.00;;;;5016365;28;20194;-85
2022/05/15 06:48:43;;;;;;;2.93;2.60;;;17.00;73.50;17.70;96764.00;;;;5014746;28;20229;-85
2022/05/15 06:51:17;;;;;;;3.27;3.07;;;17.10;73.60;17.80;96766.00;;;;5015188;28;20252;-84
2022/05/15 06:53:44;;;;;;;2.90;2.60;;;17.20;73.80;18.00;96764.00;;;;5016255;28;20268;-85
2022/05/15 06:59:00;;;;;;;4.77;2.87;;;17.50;73.30;18.20;96760.00;;;;5015576;28;20233;-87
2022/05/15 07:01:31;;;;;;;3.10;2.90;;;17.60;73.20;18.30;96764.00;;;;5013765;28;20206;-87
2022/05/15 07:03:58;;;;;;;4.17;2.93;;;17.70;72.90;18.50;96759.00;;;;5013394;28;20182;-89
2022/05/15 07:06:25;;;;;;;3.00;2.80;;;17.90;72.90;18.60;96761.00;;;;5013485;28;20754;-87
2022/05/15 07:08:53;;;;;;;3.83;3.00;;;18.00;73.50;18.80;96758.00;;;;5013513;28;20290;-87
2022/05/15 07:11:20;;;;;;;2.93;2.67;;;18.20;72.90;19.10;96767.00;;;;5012942;28;20237;-88
2022/05/15 07:13:47;;;;;;;2.77;2.57;;;18.30;72.70;19.30;96763.00;;;;5012336;28;20221;-87
2022/05/15 07:16:14;;;;;;;2.73;2.53;;;18.60;72.70;19.60;96762.00;;;;5012569;28;20248;-88
2022/05/15 07:18:43;;;;;;;3.10;2.90;;;18.70;72.10;19.80;96756.00;;;;5012513;28;20201;-88
2022/05/15 07:21:10;;;;;;;2.37;2.17;;;19.00;71.70;20.10;96769.00;;;;5009212;28;20736;-88
2022/05/15 07:23:37;;;;;;;2.53;2.30;;;19.20;71.40;20.40;96762.00;;;;5012708;28;20260;-88
2022/05/15 07:26:06;;;;;;;3.17;2.40;;;19.40;71.50;20.60;96770.00;;;;5017060;28;20666;-88
2022/05/15 07:28:33;;;;;;;2.70;2.37;;;19.60;70.20;20.90;96767.00;;;;5014479;28;20577;-90
2022/05/15 07:31:04;;;;;;;1.97;1.77;;;19.90;69.80;21.20;96773.00;;;;5012249;28;20765;-90
2022/05/15 07:33:33;;;;;;;2.50;2.23;;;20.10;69.90;21.40;96770.00;;;;5012367;28;20617;-89
2022/05/15 07:36:13;;;;;;;4.60;2.47;;;20.30;69.40;21.70;96760.00;;;;5012005;28;20201;-90
2022/05/15 07:38:40;;;;;;;2.10;2.00;;;20.60;69.20;21.90;96767.00;;;;5020395;28;20195;-90
2022/05/15 07:41:09;;;;;;;2.97;2.20;;;20.80;69.10;22.20;96760.00;;;;5018051;28;20197;-90
2022/05/15 07:43:37;;;;;;;2.73;2.50;;;21.00;68.30;22.50;96763.00;;;;5066249;23;20263;-87
2022/05/15 07:46:04;;;;;;;2.77;2.50;;;21.20;67.90;22.70;96763.00;;;;5046769;28;20193;-86
2022/05/15 07:48:31;;;;;;;2.57;2.37;;;21.50;67.60;23.00;96766.00;;;;5065024;22;20746;-88
2022/05/15 07:50:59;;;;;;;2.43;2.23;;;21.70;66.70;23.20;96759.00;;;;5070245;28;20231;-85
2022/05/15 07:53:27;;;;;;;2.17;2.07;;;21.90;66.40;23.50;96767.00;;;;5081728;28;20196;-86
2022/05/15 07:55:55;;;;;;;2.33;2.13;;;22.10;65.80;23.70;96756.00;;;;5083397;28;20192;-85
2022/05/15 07:58:25;;;;;;;3.67;1.90;;;22.30;65.20;24.00;96763.00;;;;5087036;28;20712;-86
2022/05/15 08:00:53;;;;;;;2.40;2.20;;;22.50;64.00;24.30;96761.00;;;;5081285;28;20188;-86
2022/05/15 08:03:21;;;;;;;1.80;1.70;;;22.70;63.50;24.50;96770.00;;;;5073861;28;20236;-85
2022/05/15 08:08:34;;;;;;;2.20;2.00;;;23.20;62.50;25.10;96766.00;;;;5063796;28;20221;-85
2022/05/15 08:11:02;;;;;;;2.83;1.87;;;23.40;62.00;25.40;96769.00;;;;5070625;28;20235;-86
2022/05/15 08:13:30;;;;;;;2.23;1.80;;;23.60;61.40;25.80;96768.00;;;;5069060;28;20205;-85
2022/05/15 08:15:58;;;;;;;2.00;1.80;;;23.80;61.30;26.10;96767.00;;;;5061116;28;20603;-85
2022/05/15 08:24:00;;;;;;;1.93;1.70;;;24.60;59.60;27.10;96777.00;;;;5067718;28;20268;-84
2022/05/15 08:26:29;;;;;;;2.97;1.80;;;24.80;58.90;27.50;96780.00;;;;5085246;28;20681;-85
2022/05/15 08:28:57;;;;;;;1.87;1.77;;;25.10;59.10;27.90;96776.00;;;;5084759;28;20240;-86
2022/05/15 08:31:26;;;;;;;1.67;1.53;;;25.30;59.10;28.30;96777.00;;;;5084139;28;20226;-86
2022/05/15 08:33:54;;;;;;;2.17;1.53;;;25.60;58.30;28.70;96778.00;;;;5083107;28;20638;-85
2022/05/15 08:36:21;;;;;;;1.67;1.40;;;25.80;57.30;29.20;96788.00;;;;5079396;28;20205;-87
2022/05/15 08:38:49;;;;;;;3.00;1.40;;;26.10;57.40;29.60;96791.00;;;;5079178;28;20247;-86
2022/05/15 08:41:40;;;;;;;1.30;1.20;;;26.50;57.40;30.10;96787.00;;;;5081258;28;20204;-86
2022/05/15 08:44:12;;;;;;;1.98;1.65;;;26.80;56.10;30.70;96794.00;;;;5069965;28;20224;-86
2022/05/15 08:47:00;;;;;;;1.60;1.50;;;27.20;56.40;31.20;96788.00;;;;5076248;28;20184;-85
2022/05/15 08:49:34;;;;;;;1.40;1.30;;;27.60;56.00;31.70;96793.00;;;;5075769;28;20232;-86
2022/05/15 08:52:11;;;;;;;1.38;1.20;;;28.10;55.30;32.20;96792.00;;;;5061143;28;20784;-86
2022/05/15 08:54:42;;;;;;;1.60;1.50;;;28.50;55.00;32.60;96798.00;;;;5061354;28;20228;-86
2022/05/15 08:57:20;;;;;;;1.65;1.27;;;29.00;53.80;33.00;96803.00;;;;5062325;28;20201;-86
2022/05/15 08:59:56;;;;;;;1.25;1.15;;;29.50;52.80;33.40;96808.00;;;;5060963;28;20185;-86
2022/05/15 09:02:25;;;;;;;1.20;1.10;;;30.00;51.70;33.70;96810.00;;;;5065761;28;20196;-85
2022/05/15 09:04:54;;;;;;;1.70;1.13;;;30.50;51.80;34.00;96806.00;;;;5063130;28;20258;-86
2022/05/15 09:07:46;;;;;;;1.60;1.20;;;31.00;51.00;34.40;96815.00;;;;5061978;28;20796;-86
2022/05/15 09:10:28;;;;;;;0.95;0.95;;;31.50;48.80;34.70;96813.00;;;;5061196;28;20201;-86
2022/05/15 09:13:09;;;;;;;1.65;1.05;;;32.00;48.30;35.00;96814.00;;;;5063545;28;20605;-86
2022/05/15 09:15:45;;;;;;;1.08;0.93;;;32.50;47.40;35.30;96819.00;;;;5065097;28;20196;-85
2022/05/15 09:18:21;;;;;;;0.90;0.90;;;33.00;46.40;35.50;96818.00;;;;5063974;28;20236;-84
2022/05/15 09:20:59;;;;;;;0.80;0.80;;;33.50;45.90;35.80;96812.00;;;;5064642;28;20236;-84
2022/05/15 09:23:34;;;;;;;0.95;0.88;;;33.90;46.20;36.10;96814.00;;;;5058831;28;20185;-84
2022/05/15 09:26:12;;;;;;;1.20;1.10;;;34.40;44.50;36.30;96810.00;;;;5057812;28;20232;-84
2022/05/15 09:28:45;;;;;;;1.23;0.70;;;34.90;43.60;36.60;96814.00;;;;5067337;28;20299;-84
2022/05/15 09:31:29;;;;;;;0.80;0.80;;;35.30;42.20;36.80;96815.00;;;;5076065;28;20204;-85
2022/05/15 09:34:00;;;;;;;2.83;0.80;;;35.70;40.90;36.90;96813.00;;;;5076111;28;20214;-84
2022/05/15 09:36:31;;;;;;;3.22;0.80;;;36.10;40.90;37.10;96806.00;;;;5073573;28;20184;-84
2022/05/15 09:39:23;;;;;;;1.17;0.88;;;36.50;41.30;37.30;96809.00;;;;5064032;28;20213;-84
2022/05/15 09:44:48;;;;;;;0.82;0.82;;;37.10;38.50;37.50;96809.00;;;;5063387;28;20628;-85
2022/05/15 09:47:32;;;;;;;0.93;0.90;;;37.40;38.50;37.60;96814.00;;;;5054683;28;20645;-85
2022/05/15 09:50:00;;;;;;;0.88;0.75;;;37.60;36.60;37.70;96801.00;;;;5059100;28;20216;-86
2022/05/15 09:52:34;;;;;;;0.50;0.45;;;37.80;36.90;37.70;96814.00;;;;5062549;28;20223;-85
2022/05/15 09:55:15;;;;;;;1.08;0.70;;;38.00;35.70;37.70;96811.00;;;;5063348;28;20199;-86
2022/05/15 09:57:55;;;;;;;1.75;0.80;;;38.10;34.60;37.70;96810.00;;;;5077094;28;20628;-86
2022/05/15 10:00:27;;;;;;;1.85;1.23;;;38.10;35.30;37.70;96810.00;;;;5078825;28;20188;-86
2022/05/15 10:03:03;;;;;;;1.20;0.90;;;38.20;35.20;37.60;96809.00;;;;5078977;28;20585;-86
2022/05/15 10:05:35;;;;;;;0.70;0.70;;;38.30;35.20;37.60;96807.00;;;;5069108;28;20203;-85
2022/05/15 10:08:08;;;;;;;1.40;0.70;;;38.30;35.10;37.50;96804.00;;;;5079552;28;20216;-85
2022/05/15 10:10:40;;;;;;;2.22;1.25;;;38.30;34.10;37.50;96806.00;;;;5077731;28;20200;-86
2022/05/15 10:13:13;;;;;;;2.63;0.82;;;38.30;33.20;37.30;96807.00;;;;5075748;28;20224;-86
2022/05/15 10:15:45;;;;;;;0.93;0.80;;;38.30;33.10;37.20;96799.00;;;;5053184;28;20199;-87
2022/05/15 10:18:20;;;;;;;0.88;0.70;;;38.30;32.90;37.10;96800.00;;;;5055243;28;20226;-85
2022/05/15 10:20:50;;;;;;;0.73;0.70;;;38.20;32.00;36.90;96793.00;;;;5075794;28;20263;-84
2022/05/15 10:23:24;;;;;;;0.88;0.70;;;38.10;32.30;36.80;96793.00;;;;5079463;28;20216;-85
2022/05/15 10:25:59;;;;;;;1.95;0.98;;;38.10;32.20;36.70;96787.00;;;;5068416;28;20219;-85
2022/05/15 10:28:47;;;;;;;0.82;0.60;;;38.00;31.70;36.50;96788.00;;;;5054807;28;20216;-85
2022/05/15 10:31:24;;;;;;;0.73;0.60;;;37.90;31.40;36.40;96783.00;;;;5058363;28;20203;-86
2022/05/15 10:33:55;;;;;;;1.10;0.88;;;37.80;31.50;36.20;96786.00;;;;5057669;28;20196;-86
2022/05/15 10:36:51;;;;;;;0.65;0.65;;;37.70;32.10;36.10;96785.00;;;;5051178;28;20575;-86
2022/05/15 10:39:40;;;;;;;3.25;1.95;;;37.50;30.50;35.90;96771.00;;;;5050862;28;20213;-86
2022/05/15 10:42:20;;;;;;;2.35;1.00;;;37.30;31.00;35.80;96775.00;;;;5052819;28;20275;-87
2022/05/15 10:45:01;;;;;;;1.52;1.10;;;37.10;31.50;35.60;96765.00;;;;5051748;28;20204;-87
2022/05/15 10:47:39;;;;;;;0.70;0.70;;;36.90;31.20;35.40;96762.00;;;;5061267;28;20203;-88
2022/05/15 10:50:25;;;;;;;0.80;0.60;;;36.50;31.60;35.20;96769.00;;;;5055672;28;20222;-87
2022/05/15 10:59:42;;;;;;;1.20;0.80;;;35.40;32.30;34.40;96752.00;;;;5059669;28;20250;-87
2022/05/15 11:02:36;;;;;;;0.70;0.52;;;34.90;32.80;34.00;96744.00;;;;5064591;28;20219;-86
2022/05/15 11:05:13;;;;;;;0.85;0.57;;;34.40;31.80;33.70;96749.00;;;;5065243;28;20200;-84
2022/05/15 11:07:50;;;;;;;1.80;0.68;;;34.00;32.90;33.30;96745.00;;;;5052831;28;20239;-84
2022/05/15 11:10:25;;;;;;;2.13;0.90;;;33.60;32.90;33.00;96732.00;;;;5052872;28;20204;-83
2022/05/15 11:13:05;;;;;;;0.80;0.80;;;33.20;33.40;32.70;96747.00;;;;5055640;28;20235;-84
2022/05/15 11:15:45;;;;;;;1.33;0.77;;;32.80;34.30;32.40;96735.00;;;;5060346;28;20680;-83
2022/05/15 11:18:35;;;;;;;1.70;0.82;;;32.40;35.20;32.10;96741.00;;;;5075567;28;20224;-82
2022/05/15 11:21:11;;;;;;;0.90;0.80;;;32.00;35.20;31.80;96726.00;;;;5055924;28;20201;-81
2022/05/15 11:23:46;;;;;;;1.10;1.00;;;31.70;34.50;31.60;96726.00;;;;5071902;28;20191;-81
2022/05/15 11:26:21;;;;;;;2.35;1.02;;;31.40;35.30;31.40;96722.00;;;;5069076;28;20610;-81
2022/05/15 11:28:54;;;;;;;1.55;1.00;;;31.10;34.90;31.20;96722.00;;;;5073662;28;20224;-83
2022/05/15 11:31:27;;;;;;;1.25;0.90;;;30.90;35.90;31.00;96722.00;;;;5073547;28;20263;-83
2022/05/15 11:34:02;;;;;;;1.23;1.00;;;30.70;36.70;30.90;96714.00;;;;5069328;28;20622;-82